createdAt,value
2018-05-18T00:01:47.155Z,23.45
2018-05-18T00:04:13.384Z,23.33
2018-05-18T00:06:39.692Z,23.47
2018-05-18T00:09:05.975Z,24.77
2018-05-18T00:11:32.210Z,24.70
2018-05-18T00:13:58.444Z,24.10
2018-05-18T00:16:24.691Z,22.02
2018-05-18T00:18:52.040Z,24.42
2018-05-18T00:21:18.253Z,25.13
2018-05-18T00:23:44.486Z,25.23
2018-05-18T00:26:10.729Z,26.17
2018-05-18T00:28:36.973Z,25.88
2018-05-18T00:31:03.240Z,26.60
2018-05-18T00:33:29.459Z,27.33
2018-05-18T00:35:55.698Z,27.65
2018-05-18T00:38:21.982Z,26.83
2018-05-18T00:40:48.553Z,25.23
2018-05-18T00:43:14.746Z,24.83
2018-05-18T00:45:41.345Z,28.12
2018-05-18T00:48:07.544Z,26.77
2018-05-18T00:50:33.800Z,28.00
2018-05-18T00:53:00.010Z,27.52
2018-05-18T00:55:38.510Z,25.58
2018-05-18T00:58:04.743Z,26.15
2018-05-18T01:00:30.943Z,27.77
2018-05-18T01:02:57.204Z,27.02
2018-05-18T01:05:23.422Z,31.08
2018-05-18T01:07:49.660Z,28.05
2018-05-18T01:10:15.931Z,29.77
2018-05-18T01:12:42.138Z,30.58
2018-05-18T01:15:08.411Z,30.50
2018-05-18T01:17:34.644Z,27.83
2018-05-18T01:20:00.871Z,28.20
2018-05-18T01:22:27.099Z,28.58
2018-05-18T01:24:53.296Z,28.98
2018-05-18T01:27:19.568Z,29.55
2018-05-18T01:29:45.803Z,28.30
2018-05-18T01:32:12.033Z,28.75
2018-05-18T01:34:38.258Z,28.65
2018-05-18T01:40:27.230Z,26.95
2018-05-18T01:42:54.406Z,28.67
2018-05-18T01:45:20.622Z,27.42
2018-05-18T01:47:46.853Z,27.90
2018-05-18T01:50:13.468Z,27.25
2018-05-18T01:52:40.631Z,28.30
2018-05-18T01:55:06.868Z,28.20
2018-05-18T01:57:33.984Z,26.87
2018-05-18T02:00:01.374Z,29.20
2018-05-18T02:02:27.592Z,30.25
2018-05-18T02:04:53.837Z,27.37
2018-05-18T02:07:20.135Z,27.27
2018-05-18T02:09:46.420Z,28.48
2018-05-18T02:12:12.645Z,26.30
2018-05-18T02:14:38.899Z,28.80
2018-05-18T02:17:05.358Z,26.92
2018-05-18T02:19:31.641Z,28.45
2018-05-18T02:21:57.867Z,27.52
2018-05-18T02:24:48.997Z,26.48
2018-05-18T02:27:15.635Z,28.23
2018-05-18T02:29:49.084Z,26.92
2018-05-18T02:32:15.301Z,29.77
2018-05-18T02:44:01.537Z,27.25
2018-05-18T02:46:27.813Z,28.10
2018-05-18T02:48:54.074Z,26.92
2018-05-18T02:51:20.297Z,28.20
2018-05-18T02:53:47.438Z,26.52
2018-05-18T02:56:14.082Z,27.73
2018-05-18T02:58:40.324Z,28.08
2018-05-18T03:01:06.912Z,28.10
2018-05-18T03:03:33.206Z,26.75
2018-05-18T03:05:59.473Z,27.45
2018-05-18T03:08:25.692Z,25.75
2018-05-18T03:10:52.766Z,26.30
2018-05-18T03:13:19.002Z,27.73
2018-05-18T03:15:45.247Z,26.12
2018-05-18T03:18:11.466Z,26.55
2018-05-18T03:20:37.681Z,26.60
2018-05-18T03:23:03.945Z,26.37
2018-05-18T03:25:31.070Z,25.90
2018-05-18T03:27:57.334Z,27.95
2018-05-18T03:30:24.036Z,27.20
2018-05-18T03:32:50.252Z,28.05
2018-05-18T03:35:16.526Z,26.17
2018-05-18T03:37:42.753Z,24.80
2018-05-18T03:40:09.044Z,25.00
2018-05-18T03:42:35.273Z,25.17
2018-05-18T03:45:01.513Z,26.33
2018-05-18T03:47:28.142Z,25.95
2018-05-18T03:49:55.305Z,26.80
2018-05-18T03:52:21.523Z,27.45
2018-05-18T03:54:47.777Z,27.10
2018-05-18T03:57:14.901Z,28.92
2018-05-18T03:59:41.128Z,29.50
2018-05-18T04:02:19.978Z,28.25
2018-05-18T04:04:58.632Z,27.42
2018-05-18T04:07:37.155Z,27.42
2018-05-18T04:10:03.458Z,27.20
2018-05-18T04:12:29.706Z,27.23
2018-05-18T04:14:55.925Z,26.50
2018-05-18T04:17:22.246Z,25.35
2018-05-18T04:19:48.473Z,26.15
2018-05-18T04:22:15.526Z,28.05
2018-05-18T04:24:41.756Z,26.50
2018-05-18T04:27:08.045Z,27.00
2018-05-18T04:29:35.410Z,25.67
2018-05-18T04:32:02.061Z,26.10
2018-05-18T04:34:28.342Z,27.77
2018-05-18T04:36:54.631Z,24.80
2018-05-18T04:39:20.843Z,25.50
2018-05-18T04:41:47.121Z,26.40
2018-05-18T04:44:13.363Z,25.92
2018-05-18T04:46:39.625Z,24.95
2018-05-18T04:49:05.866Z,25.88
2018-05-18T04:51:32.096Z,28.40
2018-05-18T04:53:58.302Z,23.77
2018-05-18T04:56:24.907Z,25.80
2018-05-18T04:58:51.129Z,24.70
2018-05-18T05:01:17.376Z,26.62
2018-05-18T05:03:43.600Z,25.20
2018-05-18T05:06:09.822Z,24.45
2018-05-18T05:08:36.120Z,25.48
2018-05-18T05:11:03.272Z,25.02
2018-05-18T05:13:29.500Z,24.95
2018-05-18T05:15:55.706Z,26.85
2018-05-18T05:18:21.916Z,26.42
2018-05-18T05:20:49.756Z,25.90
2018-05-18T05:23:16.531Z,26.65
2018-05-18T05:25:42.773Z,26.93
2018-05-18T05:28:09.024Z,26.55
2018-05-18T05:30:35.315Z,24.70
2018-05-18T05:33:03.381Z,28.25
2018-05-18T05:35:29.987Z,26.92
2018-05-18T05:37:56.203Z,28.62
2018-05-18T05:40:22.485Z,28.75
2018-05-18T05:42:49.387Z,27.15
2018-05-18T05:45:15.593Z,26.77
2018-05-18T05:47:41.858Z,27.20
2018-05-18T05:50:08.073Z,29.60
2018-05-18T05:52:34.297Z,25.60
2018-05-18T05:55:00.526Z,27.23
2018-05-18T05:57:26.892Z,27.77
2018-05-18T05:59:53.163Z,26.02
2018-05-18T06:02:19.408Z,26.90
2018-05-18T06:04:45.634Z,26.10
2018-05-18T06:07:11.883Z,25.17
2018-05-18T06:09:38.947Z,23.13
2018-05-18T06:12:05.611Z,25.50
2018-05-18T06:14:31.866Z,25.60
2018-05-18T06:16:58.108Z,23.53
2018-05-18T06:19:24.418Z,23.35
2018-05-18T06:21:51.617Z,23.70
2018-05-18T06:24:17.863Z,23.42
2018-05-18T06:26:44.076Z,22.77
2018-05-18T06:29:10.389Z,24.65
2018-05-18T06:31:36.636Z,24.30
2018-05-18T06:34:03.266Z,24.83
2018-05-18T06:36:29.905Z,21.65
2018-05-18T06:38:56.507Z,22.05
2018-05-18T06:41:22.803Z,22.75
2018-05-18T06:43:49.406Z,20.40
2018-05-18T06:46:15.988Z,21.00
2018-05-18T06:48:42.259Z,22.37
2018-05-18T06:51:08.458Z,19.40
2018-05-18T06:53:34.681Z,20.10
2018-05-18T06:56:02.137Z,20.57
2018-05-18T06:58:28.413Z,21.20
2018-05-18T07:00:54.609Z,20.30
2018-05-18T07:03:20.847Z,20.47
2018-05-18T07:05:47.053Z,20.50
2018-05-18T07:08:13.316Z,22.23
2018-05-18T07:10:39.589Z,20.43
2018-05-18T07:13:05.841Z,20.53
2018-05-18T07:15:32.085Z,21.23
2018-05-18T07:17:58.300Z,21.60
2018-05-18T07:20:25.065Z,20.10
2018-05-18T07:22:51.292Z,19.00
2018-05-18T07:25:17.501Z,19.83
2018-05-18T07:27:44.272Z,19.00
2018-05-18T07:30:11.026Z,20.40
2018-05-18T07:32:37.157Z,18.77
2018-05-18T07:35:03.485Z,18.33
2018-05-18T07:37:30.075Z,19.60
2018-05-18T07:39:56.996Z,21.03
2018-05-18T07:42:23.192Z,21.37
2018-05-18T07:44:49.768Z,22.03
2018-05-18T07:47:16.028Z,20.00
2018-05-18T07:49:42.247Z,21.93
2018-05-18T07:52:08.491Z,19.93
2018-05-18T07:54:34.708Z,22.97
2018-05-18T07:57:00.919Z,21.93
2018-05-18T07:59:27.777Z,22.33
2018-05-18T08:01:54.400Z,24.00
2018-05-18T08:04:20.659Z,21.30
2018-05-18T08:06:46.894Z,22.50
2018-05-18T08:09:13.531Z,22.47
2018-05-18T08:11:39.773Z,22.43
2018-05-18T08:14:07.028Z,21.20
2018-05-18T08:16:33.603Z,21.80
2018-05-18T08:18:59.849Z,20.70
2018-05-18T08:21:26.161Z,22.17
2018-05-18T08:23:52.392Z,20.87
2018-05-18T08:26:18.652Z,22.17
2018-05-18T08:28:57.060Z,20.20
2018-05-18T08:31:23.317Z,21.27
2018-05-18T08:33:49.911Z,20.53
2018-05-18T08:36:16.180Z,20.90
2018-05-18T08:38:42.763Z,21.37
2018-05-18T08:41:08.994Z,21.47
2018-05-18T08:43:35.237Z,20.70
2018-05-18T08:46:01.466Z,21.80
2018-05-18T08:48:27.687Z,21.57
2018-05-18T08:50:53.961Z,20.20
2018-05-18T08:53:20.540Z,20.20
2018-05-18T08:55:46.771Z,20.10
2018-05-18T08:58:13.197Z,21.00
2018-05-18T09:00:39.490Z,20.97
2018-05-18T09:03:05.645Z,21.33
2018-05-18T09:05:31.886Z,20.53
2018-05-18T09:07:59.849Z,19.80
2018-05-18T09:10:26.070Z,22.07
2018-05-18T09:12:52.358Z,20.37
2018-05-18T09:15:18.943Z,23.17
2018-05-18T09:17:45.162Z,20.07
2018-05-18T09:20:11.399Z,21.73
2018-05-18T09:22:37.609Z,23.40
2018-05-18T09:25:03.869Z,21.07
2018-05-18T09:27:30.176Z,21.17
2018-05-18T09:29:56.408Z,22.70
2018-05-18T09:32:22.638Z,21.90
2018-05-18T09:34:48.894Z,22.37
2018-05-18T09:37:15.107Z,22.30
2018-05-18T09:39:41.333Z,23.13
2018-05-18T09:42:07.630Z,22.67
2018-05-18T09:44:33.865Z,22.67
2018-05-18T09:47:00.108Z,23.73
2018-05-18T09:49:26.371Z,23.97
2018-05-18T09:51:52.594Z,21.60
2018-05-18T09:54:18.919Z,21.57
2018-05-18T09:56:45.125Z,21.53
2018-05-18T09:59:11.340Z,19.30
2018-05-18T10:01:37.596Z,21.83
2018-05-18T10:04:03.876Z,21.40
2018-05-18T10:06:31.182Z,21.60
2018-05-18T10:08:57.414Z,21.43
2018-05-18T10:11:23.671Z,21.83
2018-05-18T10:13:49.946Z,21.50
2018-05-18T10:16:16.247Z,21.33
2018-05-18T10:18:42.502Z,23.10
2018-05-18T10:21:09.354Z,21.93
2018-05-18T10:23:35.605Z,20.53
2018-05-18T10:26:01.837Z,22.57
2018-05-18T10:28:28.082Z,20.37
2018-05-18T10:30:54.317Z,21.97
2018-05-18T10:33:20.925Z,20.70
2018-05-18T10:35:47.184Z,20.90
2018-05-18T10:38:13.452Z,19.07
2018-05-18T10:40:39.689Z,19.70
2018-05-18T10:43:05.925Z,21.90
2018-05-18T10:45:32.164Z,20.73
2018-05-18T10:47:58.465Z,20.30
2018-05-18T10:50:24.701Z,21.03
2018-05-18T10:52:50.945Z,20.20
2018-05-18T10:55:17.973Z,20.47
2018-05-18T10:57:44.226Z,19.40
2018-05-18T11:00:10.472Z,17.10
2018-05-18T11:02:36.675Z,16.97
2018-05-18T11:05:02.945Z,18.37
2018-05-18T11:07:29.258Z,17.23
2018-05-18T11:09:55.513Z,15.20
2018-05-18T11:12:22.130Z,17.33
2018-05-18T11:14:48.386Z,18.13
2018-05-18T11:17:14.631Z,17.87
2018-05-18T11:19:40.886Z,16.33
2018-05-18T11:22:07.249Z,15.80
2018-05-18T11:24:33.836Z,17.20
2018-05-18T11:27:00.076Z,16.97
2018-05-18T11:29:26.288Z,14.97
2018-05-18T11:31:52.531Z,17.07
2018-05-18T11:34:18.808Z,17.47
2018-05-18T11:36:45.448Z,15.07
2018-05-18T11:39:12.148Z,16.63
2018-05-18T11:41:38.376Z,14.77
2018-05-18T11:44:04.623Z,16.63
2018-05-18T11:46:30.885Z,16.23
2018-05-18T11:48:57.129Z,15.70
2018-05-18T11:51:23.380Z,14.00
2018-05-18T11:53:49.608Z,15.67
2018-05-18T11:56:15.820Z,14.57
2018-05-18T11:58:42.091Z,14.90
2018-05-18T12:01:08.324Z,14.20
2018-05-18T12:03:34.597Z,13.73
2018-05-18T12:06:00.878Z,15.43
2018-05-18T12:08:27.258Z,13.30
2018-05-18T12:10:53.397Z,14.63
2018-05-18T12:13:19.678Z,14.20
2018-05-18T12:15:46.320Z,14.70
2018-05-18T12:18:12.940Z,13.57
2018-05-18T12:20:39.223Z,13.33
2018-05-18T12:23:05.461Z,14.10
2018-05-18T12:25:31.709Z,13.50
2018-05-18T12:27:58.004Z,12.53
2018-05-18T12:30:24.238Z,13.10
2018-05-18T12:32:50.522Z,12.80
2018-05-18T12:35:16.802Z,14.07
2018-05-18T12:37:43.035Z,13.80
2018-05-18T12:40:09.269Z,13.77
2018-05-18T12:42:35.525Z,14.53
2018-05-18T12:45:01.720Z,13.03
2018-05-18T12:47:27.950Z,12.77
2018-05-18T12:49:54.197Z,12.10
2018-05-18T12:52:20.425Z,13.03
2018-05-18T12:54:46.655Z,11.77
2018-05-18T12:57:12.884Z,12.73
2018-05-18T12:59:39.129Z,10.87
2018-05-18T13:02:05.359Z,12.00
2018-05-18T13:04:31.555Z,11.63
2018-05-18T13:06:57.780Z,11.70
2018-05-18T13:09:24.028Z,11.97
2018-05-18T13:11:50.231Z,11.10
2018-05-18T13:14:16.449Z,12.83
2018-05-18T13:16:42.692Z,11.90
2018-05-18T13:19:08.900Z,11.30
2018-05-18T13:21:35.699Z,13.03
2018-05-18T13:24:02.294Z,12.70
2018-05-18T13:26:28.574Z,10.30
2018-05-18T13:28:55.158Z,11.67
2018-05-18T13:31:21.382Z,11.77
2018-05-18T13:33:47.644Z,9.87
2018-05-18T13:36:13.878Z,9.67
2018-05-18T13:38:40.203Z,10.97
2018-05-18T13:41:06.348Z,10.30
2018-05-18T13:43:32.976Z,9.87
2018-05-18T13:45:59.567Z,10.20
2018-05-18T13:48:25.828Z,10.37
2018-05-18T13:50:52.111Z,9.23
2018-05-18T13:53:18.344Z,10.97
2018-05-18T13:55:44.596Z,9.47
2018-05-18T13:58:10.796Z,9.43
2018-05-18T14:00:37.063Z,10.20
2018-05-18T14:03:03.307Z,9.67
2018-05-18T14:05:29.519Z,9.30
2018-05-18T14:07:55.792Z,9.67
2018-05-18T14:10:22.009Z,8.57
2018-05-18T14:12:48.276Z,8.90
2018-05-18T14:15:14.532Z,10.00
2018-05-18T14:17:40.775Z,8.23
2018-05-18T14:20:06.987Z,8.77
2018-05-18T14:22:33.251Z,9.30
2018-05-18T14:25:00.780Z,8.37
2018-05-18T14:27:28.046Z,9.23
2018-05-18T14:29:54.720Z,8.33
2018-05-18T14:32:20.910Z,9.40
2018-05-18T14:34:47.111Z,9.47
2018-05-18T14:37:13.375Z,9.13
2018-05-18T14:39:39.634Z,7.90
2018-05-18T14:42:05.831Z,9.13
2018-05-18T14:44:32.478Z,8.20
2018-05-18T14:46:58.722Z,8.57
2018-05-18T14:49:24.940Z,8.90
2018-05-18T14:51:51.189Z,10.00
2018-05-18T14:54:17.424Z,8.40
2018-05-18T14:56:43.852Z,9.57
2018-05-18T14:59:10.125Z,7.80
2018-05-18T15:01:36.901Z,7.80
2018-05-18T15:04:03.521Z,9.77
2018-05-18T15:06:29.771Z,8.17
2018-05-18T15:08:56.394Z,9.77
2018-05-18T15:11:22.614Z,8.40
2018-05-18T15:13:48.851Z,7.77
2018-05-18T15:16:15.176Z,8.63
2018-05-18T15:18:41.337Z,7.37
2018-05-18T15:21:07.679Z,9.07
2018-05-18T15:23:33.983Z,8.90
2018-05-18T15:26:00.206Z,7.97
2018-05-18T15:28:27.563Z,7.50
2018-05-18T15:30:53.838Z,7.37
2018-05-18T15:33:20.088Z,8.47
2018-05-18T15:35:46.323Z,9.10
2018-05-18T15:38:12.548Z,8.20
2018-05-18T15:40:38.763Z,9.03
2018-05-18T15:43:04.997Z,8.60
2018-05-18T15:45:32.513Z,9.20
2018-05-18T15:47:58.771Z,8.60
2018-05-18T15:50:25.057Z,8.40
2018-05-18T15:52:51.356Z,9.20
2018-05-18T15:55:17.637Z,9.63
2018-05-18T15:57:43.839Z,9.70
2018-05-18T16:00:10.081Z,8.90
2018-05-18T16:02:36.312Z,10.53
2018-05-18T16:05:02.545Z,10.50
2018-05-18T16:07:28.804Z,11.57
2018-05-18T16:09:55.379Z,9.90
2018-05-18T16:12:21.611Z,9.73
2018-05-18T16:14:47.937Z,10.77
2018-05-18T16:17:14.570Z,9.40
2018-05-18T16:19:41.165Z,9.57
2018-05-18T16:22:07.449Z,10.53
2018-05-18T16:24:34.062Z,10.67
2018-05-18T16:27:00.287Z,9.27
2018-05-18T16:29:26.628Z,10.70
2018-05-18T16:31:53.228Z,10.50
2018-05-18T16:34:19.453Z,10.07
2018-05-18T16:36:45.760Z,10.50
2018-05-18T16:39:13.048Z,10.60
2018-05-18T16:41:39.266Z,10.60
2018-05-18T16:44:05.545Z,10.97
2018-05-18T16:46:32.443Z,11.13
2018-05-18T16:48:58.680Z,11.57
2018-05-18T16:51:25.000Z,11.10
2018-05-18T16:53:51.271Z,10.13
2018-05-18T16:56:17.538Z,11.27
2018-05-18T16:58:43.779Z,10.57
2018-05-18T17:01:10.006Z,11.10
2018-05-18T17:03:36.228Z,11.00
2018-05-18T17:06:02.510Z,10.27
2018-05-18T17:08:29.127Z,11.07
2018-05-18T17:10:55.351Z,10.00
2018-05-18T17:13:21.598Z,10.20
2018-05-18T17:15:48.169Z,10.63
2018-05-18T17:18:14.414Z,10.70
2018-05-18T17:20:40.644Z,10.60
2018-05-18T17:23:06.856Z,10.40
2018-05-18T17:25:33.093Z,10.73
2018-05-18T17:27:59.339Z,11.17
2018-05-18T17:30:25.608Z,9.93
2018-05-18T17:32:52.189Z,9.63
2018-05-18T17:35:18.425Z,9.57
2018-05-18T17:37:44.667Z,9.97
2018-05-18T17:40:10.927Z,9.50
2018-05-18T17:42:37.558Z,9.40
2018-05-18T17:45:03.866Z,9.90
2018-05-18T17:47:30.093Z,10.63
2018-05-18T17:49:56.368Z,12.97
2018-05-18T17:52:22.625Z,9.07
2018-05-18T17:54:48.890Z,10.50
2018-05-18T17:57:16.206Z,9.20
2018-05-18T17:59:42.425Z,9.30
2018-05-18T18:02:08.708Z,10.00
2018-05-18T18:04:38.884Z,9.67
2018-05-18T18:07:05.188Z,10.90
2018-05-18T18:09:31.469Z,10.10
2018-05-18T18:11:57.736Z,10.60
2018-05-18T18:14:23.990Z,10.63
2018-05-18T18:16:50.256Z,10.50
2018-05-18T18:19:16.516Z,11.00
2018-05-18T18:21:43.195Z,9.73
2018-05-18T18:24:09.437Z,9.43
2018-05-18T18:26:35.683Z,10.47
2018-05-18T18:29:01.950Z,9.17
2018-05-18T18:31:28.196Z,9.63
2018-05-18T18:33:54.478Z,10.30
2018-05-18T18:36:20.716Z,10.33
2018-05-18T18:38:46.958Z,10.87
2018-05-18T18:41:13.626Z,10.90
2018-05-18T18:43:40.442Z,11.30
2018-05-18T18:46:08.031Z,12.43
2018-05-18T18:48:35.374Z,10.70
2018-05-18T18:51:01.616Z,11.63
2018-05-18T18:53:28.615Z,10.27
2018-05-18T18:55:55.263Z,10.80
2018-05-18T18:58:22.508Z,12.73
2018-05-18T19:01:17.336Z,11.77
2018-05-18T19:03:43.707Z,10.90
2018-05-18T19:06:09.947Z,10.43
2018-05-18T19:08:36.215Z,9.97
2018-05-18T19:11:02.521Z,11.40
2018-05-18T19:13:28.810Z,10.90
2018-05-18T19:15:55.072Z,9.80
2018-05-18T19:18:21.360Z,10.40
2018-05-18T19:20:47.759Z,10.47
2018-05-18T19:23:14.036Z,10.93
2018-05-18T19:25:40.317Z,10.80
2018-05-18T19:28:06.552Z,10.93
2018-05-18T19:30:32.827Z,10.27
2018-05-18T19:32:59.180Z,9.87
2018-05-18T19:35:25.481Z,11.00
2018-05-18T19:37:51.742Z,10.37
2018-05-18T19:40:18.001Z,11.10
2018-05-18T19:42:44.270Z,10.90
2018-05-18T19:45:10.539Z,11.03
2018-05-18T19:47:37.129Z,11.47
2018-05-18T19:50:03.454Z,9.87
2018-05-18T19:52:29.686Z,10.83
2018-05-18T19:54:55.940Z,10.67
2018-05-18T19:57:22.273Z,10.00
2018-05-18T19:59:48.541Z,10.20
2018-05-18T20:02:14.760Z,10.97
2018-05-18T20:04:41.066Z,10.70
2018-05-18T20:07:07.367Z,10.53
2018-05-18T20:09:33.651Z,10.73
2018-05-18T20:12:00.065Z,10.23
2018-05-18T20:14:26.345Z,9.97
2018-05-18T20:16:52.607Z,10.27
2018-05-18T20:19:18.905Z,12.10
2018-05-18T20:21:45.257Z,13.47
2018-05-18T20:24:11.517Z,11.93
2018-05-18T20:26:37.853Z,12.90
2018-05-18T20:29:04.526Z,12.77
2018-05-18T20:31:30.768Z,11.63
2018-05-18T20:33:57.534Z,10.63
2018-05-18T20:36:23.811Z,11.10
2018-05-18T20:38:50.025Z,10.60
2018-05-18T20:41:16.241Z,10.40
2018-05-18T20:43:42.880Z,11.23
2018-05-18T20:46:09.479Z,10.50
2018-05-18T20:48:35.712Z,10.90
2018-05-18T20:51:01.981Z,10.30
2018-05-18T20:53:28.299Z,10.90
2018-05-18T20:55:54.896Z,10.37
2018-05-18T20:58:21.169Z,10.60
2018-05-18T21:00:47.452Z,11.30
2018-05-18T21:03:13.692Z,11.63
2018-05-18T21:05:39.945Z,11.80
2018-05-18T21:08:06.601Z,11.30
2018-05-18T21:10:33.201Z,10.13
2018-05-18T21:12:59.459Z,11.93
2018-05-18T21:15:25.737Z,11.17
2018-05-18T21:17:51.999Z,12.00
2018-05-18T21:20:18.247Z,11.30
2018-05-18T21:22:45.120Z,12.70
2018-05-18T21:25:11.391Z,10.10
2018-05-18T21:27:37.673Z,12.50
2018-05-18T21:30:03.924Z,10.40
2018-05-18T21:32:30.160Z,11.17
2018-05-18T21:34:56.442Z,10.83
2018-05-18T21:37:23.134Z,10.30
2018-05-18T21:39:50.140Z,11.13
2018-05-18T21:42:16.394Z,11.33
2018-05-18T21:44:42.630Z,11.30
2018-05-18T21:47:08.865Z,12.80
2018-05-18T21:49:35.079Z,12.07
2018-05-18T21:52:01.329Z,12.47
2018-05-18T21:54:27.557Z,13.37
2018-05-18T21:56:53.828Z,11.97
2018-05-18T21:59:20.081Z,12.17
2018-05-18T22:01:46.304Z,12.53
2018-05-18T22:04:12.508Z,12.37
2018-05-18T22:06:39.161Z,12.37
2018-05-18T22:09:05.381Z,12.53
2018-05-18T22:11:31.622Z,12.67
2018-05-18T22:13:57.884Z,12.60
2018-05-18T22:16:24.091Z,14.10
2018-05-18T22:18:50.347Z,13.73
2018-05-18T22:21:16.589Z,13.93
2018-05-18T22:23:42.808Z,12.90
2018-05-18T22:26:09.020Z,13.53
2018-05-18T22:28:35.286Z,13.10
2018-05-18T22:31:01.508Z,14.93
2018-05-18T22:33:27.752Z,13.37
2018-05-18T22:35:54.025Z,13.70
2018-05-18T22:38:20.244Z,13.93
2018-05-18T22:40:46.471Z,14.03
2018-05-18T22:43:12.703Z,14.50
2018-05-18T22:45:38.961Z,14.13
2018-05-18T22:48:05.174Z,13.77
2018-05-18T22:50:32.253Z,13.17
2018-05-18T22:52:58.467Z,13.00
2018-05-18T22:55:24.685Z,14.03
2018-05-18T22:57:50.901Z,13.63
2018-05-18T23:00:24.918Z,13.70
2018-05-18T23:02:51.945Z,15.03
2018-05-18T23:05:18.163Z,15.00
2018-05-18T23:07:44.402Z,14.50
2018-05-18T23:10:10.628Z,15.00
2018-05-18T23:12:36.836Z,14.20
2018-05-18T23:15:03.136Z,14.20
2018-05-18T23:17:29.369Z,14.53
2018-05-18T23:19:55.947Z,13.47
2018-05-18T23:22:22.162Z,14.17
2018-05-18T23:24:48.370Z,15.50
2018-05-18T23:27:14.596Z,13.60
2018-05-18T23:29:40.890Z,15.10
2018-05-18T23:32:07.125Z,13.50
2018-05-18T23:34:33.367Z,14.30
2018-05-18T23:36:59.976Z,15.33
2018-05-18T23:39:26.191Z,14.70
2018-05-18T23:41:52.431Z,13.70
2018-05-18T23:44:19.042Z,14.77
2018-05-18T23:46:45.290Z,14.83
2018-05-18T23:49:11.517Z,16.13
2018-05-18T23:51:37.730Z,14.13
2018-05-18T23:54:04.024Z,13.80
2018-05-18T23:56:30.631Z,14.70
2018-05-18T23:58:56.859Z,15.70
